createdAt,value
2018-09-27T00:00:10.106Z,6.60
2018-09-27T00:02:38.590Z,6.50
2018-09-27T00:05:07.116Z,6.50
2018-09-27T00:07:35.642Z,6.50
2018-09-27T00:10:04.268Z,6.50
2018-09-27T00:12:32.855Z,6.40
2018-09-27T00:15:01.392Z,6.40
2018-09-27T00:17:29.954Z,6.40
2018-09-27T00:19:58.471Z,6.40
2018-09-27T00:22:27.009Z,6.30
2018-09-27T00:24:55.530Z,6.30
2018-09-27T00:27:24.071Z,6.30
2018-09-27T00:29:52.594Z,6.30
2018-09-27T00:32:21.159Z,6.30
2018-09-27T00:34:49.675Z,6.20
2018-09-27T00:37:18.213Z,6.20
2018-09-27T00:39:46.727Z,6.20
2018-09-27T00:42:15.274Z,6.20
2018-09-27T00:44:44.140Z,6.10
2018-09-27T00:47:12.682Z,6.10
2018-09-27T00:49:41.262Z,6.10
2018-09-27T00:52:09.785Z,6.10
2018-09-27T00:54:38.356Z,6.00
2018-09-27T00:57:06.880Z,6.10
2018-09-27T00:59:35.440Z,6.10
2018-09-27T01:02:03.995Z,6.10
2018-09-27T01:04:32.555Z,6.10
2018-09-27T01:07:01.144Z,6.00
2018-09-27T01:09:29.766Z,6.00
2018-09-27T01:11:58.289Z,6.00
2018-09-27T01:14:26.906Z,6.00
2018-09-27T01:16:55.455Z,6.00
2018-09-27T01:19:23.994Z,6.00
2018-09-27T01:21:52.535Z,5.90
2018-09-27T01:24:21.112Z,5.90
2018-09-27T01:26:49.631Z,5.90
2018-09-27T01:29:18.206Z,5.90
2018-09-27T01:31:46.802Z,5.90
2018-09-27T01:34:15.453Z,5.90
2018-09-27T01:36:43.955Z,5.90
2018-09-27T01:39:12.496Z,5.90
2018-09-27T01:41:41.036Z,5.90
2018-09-27T01:44:09.578Z,5.90
2018-09-27T01:46:38.148Z,5.90
2018-09-27T01:49:06.788Z,5.80
2018-09-27T01:51:35.420Z,5.80
2018-09-27T01:54:04.015Z,5.80
2018-09-27T01:56:32.583Z,5.80
2018-09-27T01:59:01.138Z,5.80
2018-09-27T02:01:29.683Z,5.70
2018-09-27T02:03:58.229Z,5.70
2018-09-27T02:06:26.801Z,5.80
2018-09-27T02:08:55.327Z,5.70
2018-09-27T02:11:23.883Z,5.70
2018-09-27T02:13:52.414Z,5.80
2018-09-27T02:16:20.995Z,5.70
2018-09-27T02:18:49.531Z,5.70
2018-09-27T02:21:18.097Z,5.70
2018-09-27T02:23:46.603Z,5.70
2018-09-27T02:26:15.154Z,5.70
2018-09-27T02:28:43.648Z,5.70
2018-09-27T02:31:12.171Z,5.70
2018-09-27T02:33:40.718Z,5.60
2018-09-27T02:36:09.231Z,5.60
2018-09-27T02:38:37.771Z,5.60
2018-09-27T02:41:06.310Z,5.60
2018-09-27T02:43:34.887Z,5.60
2018-09-27T02:46:03.427Z,5.60
2018-09-27T02:48:32.044Z,5.60
2018-09-27T02:51:00.774Z,5.50
2018-09-27T02:53:29.310Z,5.50
2018-09-27T02:55:57.814Z,5.50
2018-09-27T02:58:26.473Z,5.50
2018-09-27T03:00:54.997Z,5.50
2018-09-27T03:03:23.567Z,5.50
2018-09-27T03:05:52.211Z,5.50
2018-09-27T03:08:20.799Z,5.60
2018-09-27T03:10:49.325Z,5.60
2018-09-27T03:13:17.895Z,5.60
2018-09-27T03:15:46.481Z,5.60
2018-09-27T03:18:15.060Z,5.50
2018-09-27T03:20:43.600Z,5.60
2018-09-27T03:23:12.197Z,5.60
2018-09-27T03:25:40.707Z,5.60
2018-09-27T03:28:09.227Z,5.60
2018-09-27T03:30:37.928Z,5.50
2018-09-27T03:38:14.467Z,5.50
2018-09-27T03:40:43.119Z,5.50
2018-09-27T03:43:11.711Z,5.50
2018-09-27T03:45:40.275Z,5.50
2018-09-27T03:48:08.795Z,5.50
2018-09-27T03:50:37.411Z,5.50
2018-09-27T03:53:05.947Z,5.50
2018-09-27T03:55:34.553Z,5.40
2018-09-27T03:58:03.071Z,5.40
2018-09-27T04:00:31.594Z,5.40
2018-09-27T04:03:00.087Z,5.40
2018-09-27T04:05:28.622Z,5.40
2018-09-27T04:07:57.144Z,5.40
2018-09-27T04:10:25.674Z,5.40
2018-09-27T04:12:54.152Z,5.40
2018-09-27T04:15:22.722Z,5.40
2018-09-27T04:17:51.250Z,5.40
2018-09-27T04:20:19.830Z,5.40
2018-09-27T04:22:48.338Z,5.50
2018-09-27T04:25:16.871Z,5.50
2018-09-27T04:27:45.443Z,5.50
2018-09-27T04:30:14.036Z,5.50
2018-09-27T04:32:42.595Z,5.50
2018-09-27T04:35:11.320Z,5.50
2018-09-27T04:37:39.831Z,5.60
2018-09-27T04:40:08.368Z,5.60
2018-09-27T04:42:36.944Z,5.60
2018-09-27T04:45:05.660Z,5.60
2018-09-27T04:47:34.250Z,5.60
2018-09-27T04:50:02.944Z,5.70
2018-09-27T04:52:31.547Z,5.70
2018-09-27T04:55:00.146Z,5.70
2018-09-27T04:57:28.727Z,5.70
2018-09-27T04:59:57.255Z,5.70
2018-09-27T05:02:25.808Z,5.70
2018-09-27T05:04:54.342Z,5.80
2018-09-27T05:07:22.968Z,5.80
2018-09-27T05:09:51.466Z,5.80
2018-09-27T05:12:20.042Z,5.80
2018-09-27T05:14:48.590Z,5.80
2018-09-27T05:17:17.150Z,5.80
2018-09-27T05:19:45.671Z,5.80
2018-09-27T05:22:14.189Z,5.90
2018-09-27T05:24:42.754Z,5.90
2018-09-27T05:27:11.311Z,5.90
2018-09-27T05:29:39.827Z,5.90
2018-09-27T05:32:08.546Z,6.00
2018-09-27T05:34:37.102Z,6.00
2018-09-27T05:37:05.700Z,6.00
2018-09-27T05:39:34.255Z,6.00
2018-09-27T05:42:02.797Z,6.10
2018-09-27T05:44:31.418Z,6.10
2018-09-27T05:46:59.945Z,6.20
2018-09-27T05:49:28.499Z,6.20
2018-09-27T05:51:57.089Z,6.30
2018-09-27T05:54:25.650Z,6.30
2018-09-27T05:56:54.168Z,6.40
2018-09-27T05:59:22.733Z,6.50
2018-09-27T06:01:51.259Z,6.50
2018-09-27T06:04:19.832Z,6.60
2018-09-27T06:06:48.373Z,6.70
2018-09-27T06:09:16.930Z,6.80
2018-09-27T06:11:45.454Z,6.90
2018-09-27T06:14:14.053Z,7.00
2018-09-27T06:16:42.551Z,7.10
2018-09-27T06:19:11.125Z,7.20
2018-09-27T06:21:39.743Z,7.30
2018-09-27T06:24:08.283Z,7.40
2018-09-27T06:26:36.853Z,7.50
2018-09-27T06:29:05.449Z,7.60
2018-09-27T06:31:34.010Z,7.70
2018-09-27T06:34:02.530Z,7.80
2018-09-27T06:36:31.129Z,7.90
2018-09-27T06:38:59.711Z,8.10
2018-09-27T06:41:28.291Z,8.20
2018-09-27T06:43:56.815Z,8.30
2018-09-27T06:46:26.029Z,8.50
2018-09-27T06:48:54.617Z,8.60
2018-09-27T06:51:23.162Z,8.70
2018-09-27T06:53:51.706Z,8.80
2018-09-27T06:56:20.273Z,9.00
2018-09-27T06:58:48.939Z,9.10
2018-09-27T07:01:17.503Z,9.20
2018-09-27T07:03:46.011Z,9.40
2018-09-27T07:06:14.595Z,9.50
2018-09-27T07:08:43.303Z,9.70
2018-09-27T07:11:11.725Z,9.80
2018-09-27T07:13:40.278Z,10.00
2018-09-27T07:16:08.776Z,10.20
2018-09-27T07:18:37.346Z,10.30
2018-09-27T07:21:06.006Z,10.40
2018-09-27T07:23:34.833Z,10.50
2018-09-27T07:26:03.787Z,10.60
2018-09-27T07:28:32.343Z,10.80
2018-09-27T07:31:00.898Z,10.90
2018-09-27T07:33:29.445Z,11.00
2018-09-27T07:35:58.055Z,11.20
2018-09-27T07:38:26.657Z,11.30
2018-09-27T07:40:55.226Z,11.40
2018-09-27T07:43:23.798Z,11.60
2018-09-27T07:45:52.305Z,11.80
2018-09-27T07:48:20.864Z,11.90
2018-09-27T07:50:49.418Z,12.10
2018-09-27T07:53:17.995Z,12.30
2018-09-27T07:55:46.675Z,12.50
2018-09-27T07:58:15.261Z,12.70
2018-09-27T08:00:43.791Z,12.80
2018-09-27T08:03:12.531Z,13.00
2018-09-27T08:05:41.053Z,13.20
2018-09-27T08:08:09.591Z,13.40
2018-09-27T08:10:38.183Z,13.60
2018-09-27T08:13:06.764Z,13.70
2018-09-27T08:15:35.354Z,13.90
2018-09-27T08:18:03.893Z,14.10
2018-09-27T08:20:32.551Z,14.20
2018-09-27T08:23:00.975Z,14.40
2018-09-27T08:25:29.547Z,14.60
2018-09-27T08:27:58.065Z,14.70
2018-09-27T08:30:26.611Z,14.90
2018-09-27T08:32:55.132Z,15.10
2018-09-27T08:35:23.684Z,15.20
2018-09-27T08:37:52.233Z,15.30
2018-09-27T08:40:20.789Z,15.50
2018-09-27T08:42:49.294Z,15.60
2018-09-27T08:45:18.267Z,15.60
2018-09-27T08:47:46.460Z,15.60
2018-09-27T08:50:15.092Z,15.80
2018-09-27T08:52:43.597Z,15.90
2018-09-27T08:55:12.246Z,16.00
2018-09-27T08:57:40.807Z,16.10
2018-09-27T09:00:09.357Z,16.30
2018-09-27T09:02:37.918Z,16.30
2018-09-27T09:05:06.570Z,16.40
2018-09-27T09:07:35.116Z,16.50
2018-09-27T09:10:03.682Z,16.70
2018-09-27T09:12:32.252Z,16.90
2018-09-27T09:15:00.812Z,16.90
2018-09-27T09:17:29.437Z,17.10
2018-09-27T09:19:57.998Z,17.20
2018-09-27T09:22:26.563Z,17.40
2018-09-27T09:24:55.101Z,17.50
2018-09-27T09:27:23.815Z,17.70
2018-09-27T09:29:52.340Z,17.90
2018-09-27T09:32:20.849Z,18.10
2018-09-27T09:34:49.358Z,18.20
2018-09-27T09:37:17.964Z,18.30
2018-09-27T09:39:46.486Z,18.50
2018-09-27T09:42:15.049Z,18.40
2018-09-27T09:44:43.598Z,18.60
2018-09-27T09:47:12.272Z,18.70
2018-09-27T09:49:40.797Z,18.90
2018-09-27T09:52:09.410Z,19.10
2018-09-27T09:54:38.060Z,19.10
2018-09-27T09:57:07.206Z,19.10
2018-09-27T09:59:35.772Z,19.30
2018-09-27T10:02:04.450Z,19.50
2018-09-27T10:04:33.118Z,19.70
2018-09-27T10:07:01.618Z,19.80
2018-09-27T10:09:30.202Z,20.00
2018-09-27T10:11:58.711Z,20.00
2018-09-27T10:14:27.271Z,20.20
2018-09-27T10:16:55.782Z,20.20
2018-09-27T10:19:24.330Z,20.30
2018-09-27T10:21:52.854Z,20.40
2018-09-27T10:24:21.485Z,20.60
2018-09-27T10:26:50.062Z,20.70
2018-09-27T10:29:18.641Z,20.80
2018-09-27T10:31:47.202Z,20.90
2018-09-27T10:34:15.815Z,20.80
2018-09-27T10:36:44.310Z,20.70
2018-09-27T10:39:13.723Z,20.70
2018-09-27T10:41:43.161Z,20.60
2018-09-27T10:44:11.874Z,20.60
2018-09-27T10:46:40.454Z,20.70
2018-09-27T10:49:09.085Z,21.00
2018-09-27T10:51:37.702Z,21.10
2018-09-27T10:54:06.295Z,21.20
2018-09-27T10:56:34.866Z,21.30
2018-09-27T10:59:03.491Z,21.40
2018-09-27T11:01:32.124Z,21.40
2018-09-27T11:04:00.805Z,21.50
2018-09-27T11:06:29.393Z,21.70
2018-09-27T11:08:58.178Z,21.70
2018-09-27T11:11:26.812Z,21.60
2018-09-27T11:13:55.406Z,21.60
2018-09-27T11:16:24.057Z,21.60
2018-09-27T11:18:52.615Z,21.60
2018-09-27T11:21:21.205Z,21.60
2018-09-27T11:23:49.768Z,21.80
2018-09-27T11:26:18.374Z,21.50
2018-09-27T11:28:52.213Z,21.40
2018-09-27T11:31:26.171Z,21.20
2018-09-27T11:33:54.691Z,21.20
2018-09-27T11:36:23.310Z,21.20
2018-09-27T11:38:51.775Z,21.20
2018-09-27T11:41:20.331Z,21.20
2018-09-27T11:43:48.897Z,21.20
2018-09-27T11:46:17.449Z,21.20
2018-09-27T11:48:46.041Z,21.20
2018-09-27T11:51:14.612Z,21.30
2018-09-27T11:53:43.153Z,21.50
2018-09-27T11:56:11.882Z,21.80
2018-09-27T11:58:40.357Z,22.00
2018-09-27T12:01:09.364Z,22.10
2018-09-27T12:03:38.012Z,22.30
2018-09-27T12:06:06.598Z,22.50
2018-09-27T12:08:35.216Z,22.70
2018-09-27T12:11:03.843Z,22.90
2018-09-27T12:13:32.538Z,22.90
2018-09-27T12:16:01.019Z,22.80
2018-09-27T12:18:29.591Z,22.90
2018-09-27T12:20:58.151Z,23.00
2018-09-27T12:23:26.712Z,23.10
2018-09-27T12:25:55.285Z,23.30
2018-09-27T12:28:23.893Z,23.30
2018-09-27T12:30:52.510Z,23.30
2018-09-27T12:33:21.110Z,23.20
2018-09-27T12:35:49.652Z,23.40
2018-09-27T12:38:18.328Z,23.30
2018-09-27T12:40:47.078Z,23.40
2018-09-27T12:43:15.572Z,23.40
2018-09-27T12:45:44.301Z,23.60
2018-09-27T12:48:12.827Z,23.80
2018-09-27T12:50:41.502Z,24.00
2018-09-27T12:53:09.978Z,24.20
2018-09-27T12:55:38.659Z,24.30
2018-09-27T12:58:07.171Z,24.20
2018-09-27T13:00:35.748Z,24.20
2018-09-27T13:03:04.297Z,24.10
2018-09-27T13:05:32.883Z,24.00
2018-09-27T13:08:01.404Z,24.10
2018-09-27T13:10:29.962Z,24.00
2018-09-27T13:12:59.426Z,24.00
2018-09-27T13:15:28.016Z,24.10
2018-09-27T13:17:56.578Z,24.10
2018-09-27T13:20:25.215Z,24.10
2018-09-27T13:22:53.706Z,24.20
2018-09-27T13:25:22.273Z,24.20
2018-09-27T13:27:50.828Z,24.30
2018-09-27T13:30:19.485Z,24.30
2018-09-27T13:32:48.008Z,24.40
2018-09-27T13:35:16.608Z,24.30
2018-09-27T13:37:45.146Z,24.20
2018-09-27T13:40:13.718Z,24.30
2018-09-27T13:42:42.252Z,24.30
2018-09-27T13:45:10.917Z,24.30
2018-09-27T13:47:39.423Z,24.30
2018-09-27T13:50:07.983Z,24.20
2018-09-27T13:52:36.586Z,24.00
2018-09-27T13:55:05.368Z,23.90
2018-09-27T13:57:34.072Z,23.80
2018-09-27T14:00:02.703Z,23.80
2018-09-27T14:02:31.270Z,23.80
2018-09-27T14:04:59.795Z,23.70
2018-09-27T14:07:28.372Z,23.70
2018-09-27T14:09:56.910Z,23.70
2018-09-27T14:12:25.483Z,23.70
2018-09-27T14:14:54.015Z,23.60
2018-09-27T14:17:22.554Z,23.50
2018-09-27T14:19:51.098Z,23.50
2018-09-27T14:22:19.667Z,23.40
2018-09-27T14:24:48.250Z,23.40
2018-09-27T14:27:16.832Z,23.40
2018-09-27T14:29:45.363Z,23.40
2018-09-27T14:32:13.970Z,23.40
2018-09-27T14:34:42.511Z,23.30
2018-09-27T14:37:11.084Z,23.30
2018-09-27T14:39:39.654Z,23.20
2018-09-27T14:42:08.210Z,23.20
2018-09-27T14:44:36.755Z,23.20
2018-09-27T14:47:05.259Z,23.10
2018-09-27T14:49:33.864Z,23.00
2018-09-27T14:52:02.491Z,22.90
2018-09-27T14:54:31.046Z,22.80
2018-09-27T14:56:59.591Z,22.70
2018-09-27T14:59:28.175Z,22.70
2018-09-27T15:01:56.700Z,22.60
2018-09-27T15:04:25.312Z,22.60
2018-09-27T15:06:54.173Z,22.40
2018-09-27T15:09:22.883Z,22.30
2018-09-27T15:11:51.472Z,22.30
2018-09-27T15:14:20.086Z,22.10
2018-09-27T15:16:48.669Z,22.10
2018-09-27T15:19:17.232Z,22.00
2018-09-27T15:21:45.760Z,21.90
2018-09-27T15:24:14.308Z,21.80
2018-09-27T15:26:42.835Z,21.80
2018-09-27T15:29:11.506Z,21.70
2018-09-27T15:31:40.002Z,21.60
2018-09-27T15:34:08.665Z,21.50
2018-09-27T15:36:37.245Z,21.40
2018-09-27T15:39:07.413Z,21.30
2018-09-27T15:41:35.933Z,21.20
2018-09-27T15:44:04.605Z,21.10
2018-09-27T15:46:33.435Z,21.00
2018-09-27T15:49:02.074Z,20.90
2018-09-27T15:51:30.777Z,20.90
2018-09-27T15:53:59.281Z,20.80
2018-09-27T15:56:28.154Z,20.70
2018-09-27T15:58:56.757Z,20.60
2018-09-27T16:01:25.369Z,20.50
2018-09-27T16:03:53.943Z,20.30
2018-09-27T16:06:22.768Z,20.20
2018-09-27T16:08:51.476Z,20.10
2018-09-27T16:11:20.092Z,20.10
2018-09-27T16:13:48.633Z,20.00
2018-09-27T16:16:17.204Z,19.90
2018-09-27T16:18:45.855Z,19.70
2018-09-27T16:21:14.441Z,19.60
2018-09-27T16:23:43.102Z,19.50
2018-09-27T16:26:11.696Z,19.40
2018-09-27T16:28:41.637Z,19.30
2018-09-27T16:31:10.340Z,19.20
2018-09-27T16:33:38.985Z,19.00
2018-09-27T16:36:07.556Z,18.90
2018-09-27T16:38:36.087Z,18.70
2018-09-27T16:41:04.647Z,18.60
2018-09-27T16:43:33.198Z,18.50
2018-09-27T16:46:01.719Z,18.40
2018-09-27T16:48:30.355Z,18.30
2018-09-27T16:50:58.859Z,18.20
2018-09-27T16:53:27.562Z,18.10
2018-09-27T16:55:56.084Z,18.00
2018-09-27T16:58:24.679Z,17.90
2018-09-27T17:00:53.246Z,17.80
2018-09-27T17:03:21.896Z,17.70
2018-09-27T17:05:50.455Z,17.60
2018-09-27T17:08:19.109Z,17.50
2018-09-27T17:10:47.666Z,17.40
2018-09-27T17:13:16.234Z,17.40
2018-09-27T17:15:44.750Z,17.30
2018-09-27T17:18:13.319Z,17.20
2018-09-27T17:20:41.901Z,17.10
2018-09-27T17:23:10.447Z,17.00
2018-09-27T17:25:38.965Z,16.90
2018-09-27T17:28:07.579Z,16.80
2018-09-27T17:30:36.211Z,16.80
2018-09-27T17:33:04.801Z,16.70
2018-09-27T17:35:33.490Z,16.70
2018-09-27T17:38:02.197Z,16.60
2018-09-27T17:40:30.863Z,16.50
2018-09-27T17:42:59.444Z,16.50
2018-09-27T17:45:28.072Z,16.40
2018-09-27T17:47:56.961Z,16.40
2018-09-27T17:50:27.627Z,16.30
2018-09-27T17:52:56.377Z,16.20
2018-09-27T17:55:25.349Z,16.20
2018-09-27T17:57:53.890Z,16.10
2018-09-27T18:00:22.487Z,16.00
2018-09-27T18:02:50.978Z,16.00
2018-09-27T18:05:19.643Z,15.90
2018-09-27T18:07:48.027Z,15.80
2018-09-27T18:10:16.531Z,15.70
2018-09-27T18:12:45.035Z,15.70
2018-09-27T18:15:13.634Z,15.50
2018-09-27T18:17:42.147Z,15.50
2018-09-27T18:20:10.728Z,15.40
2018-09-27T18:22:39.276Z,15.30
2018-09-27T18:25:07.846Z,15.30
2018-09-27T18:27:36.334Z,15.30
2018-09-27T18:30:04.982Z,15.20
2018-09-27T18:32:33.519Z,15.20
2018-09-27T18:35:02.051Z,15.10
2018-09-27T18:37:30.668Z,15.10
2018-09-27T18:39:59.147Z,15.10
2018-09-27T18:42:27.714Z,15.00
2018-09-27T18:44:56.254Z,15.00
2018-09-27T18:47:24.787Z,14.80
2018-09-27T18:49:53.326Z,14.70
2018-09-27T18:52:21.901Z,14.60
2018-09-27T18:54:50.382Z,14.50
2018-09-27T18:57:18.924Z,14.30
2018-09-27T18:59:47.440Z,14.30
2018-09-27T19:02:15.979Z,14.20
2018-09-27T19:04:44.491Z,14.10
2018-09-27T19:07:13.310Z,14.00
2018-09-27T19:09:41.874Z,13.90
2018-09-27T19:12:10.440Z,13.80
2018-09-27T19:14:38.952Z,13.70
2018-09-27T19:17:09.575Z,13.70
2018-09-27T19:19:38.020Z,13.60
2018-09-27T19:22:07.428Z,13.50
2018-09-27T19:24:35.944Z,13.40
2018-09-27T19:27:04.554Z,13.40
2018-09-27T19:29:33.118Z,13.30
2018-09-27T19:32:01.635Z,13.30
2018-09-27T19:34:30.186Z,13.20
2018-09-27T19:36:58.916Z,13.20
2018-09-27T19:39:27.475Z,13.10
2018-09-27T19:41:56.003Z,13.00
2018-09-27T19:44:24.546Z,12.90
2018-09-27T19:46:53.087Z,12.90
2018-09-27T19:49:21.675Z,12.80
2018-09-27T19:51:50.266Z,12.70
2018-09-27T19:54:18.866Z,12.70
2018-09-27T19:56:47.388Z,12.60
2018-09-27T19:59:15.982Z,12.50
2018-09-27T20:01:44.559Z,12.50
2018-09-27T20:04:13.197Z,12.50
2018-09-27T20:06:41.632Z,12.40
2018-09-27T20:09:12.437Z,12.40
2018-09-27T20:11:41.170Z,12.40
2018-09-27T20:14:09.959Z,12.30
2018-09-27T20:16:38.873Z,12.30
2018-09-27T20:19:07.670Z,12.30
2018-09-27T20:21:36.307Z,12.30
2018-09-27T20:24:05.093Z,12.20
2018-09-27T20:26:33.626Z,12.20
2018-09-27T20:29:02.132Z,12.20
2018-09-27T20:31:30.669Z,12.10
2018-09-27T20:33:59.180Z,12.00
2018-09-27T20:36:28.142Z,12.00
2018-09-27T20:38:56.982Z,11.90
2018-09-27T20:41:25.624Z,11.90
2018-09-27T20:43:54.121Z,11.80
2018-09-27T20:46:22.678Z,11.80
2018-09-27T20:48:51.250Z,11.80
2018-09-27T20:51:19.766Z,11.60
2018-09-27T20:53:48.322Z,11.60
2018-09-27T20:56:16.859Z,11.60
2018-09-27T20:58:45.373Z,11.50
2018-09-27T21:01:13.918Z,11.50
2018-09-27T21:03:42.438Z,11.60
2018-09-27T21:06:10.981Z,11.60
2018-09-27T21:08:39.465Z,11.60
2018-09-27T21:11:08.067Z,11.60
2018-09-27T21:13:36.616Z,11.60
2018-09-27T21:16:05.066Z,11.60
2018-09-27T21:18:33.616Z,11.70
2018-09-27T21:21:02.128Z,11.60
2018-09-27T21:23:30.657Z,11.70
2018-09-27T21:25:59.153Z,11.50
2018-09-27T21:28:27.664Z,11.50
2018-09-27T21:30:56.516Z,11.50
2018-09-27T21:33:25.066Z,11.50
2018-09-27T21:35:53.579Z,11.40
2018-09-27T21:38:22.525Z,11.40
2018-09-27T21:40:51.019Z,11.40
2018-09-27T21:43:19.577Z,11.30
2018-09-27T21:45:48.067Z,11.30
2018-09-27T21:48:16.596Z,11.20
2018-09-27T21:50:45.116Z,11.10
2018-09-27T21:53:13.684Z,11.10
2018-09-27T21:55:42.190Z,11.10
2018-09-27T21:58:10.709Z,11.00
2018-09-27T22:00:39.242Z,11.00
2018-09-27T22:03:07.786Z,10.90
2018-09-27T22:05:36.278Z,10.90
2018-09-27T22:08:04.804Z,10.80
2018-09-27T22:10:33.342Z,10.80
2018-09-27T22:13:01.842Z,10.70
2018-09-27T22:15:30.398Z,10.70
2018-09-27T22:17:58.909Z,10.70
2018-09-27T22:20:27.434Z,10.70
2018-09-27T22:22:55.947Z,10.60
2018-09-27T22:25:24.473Z,10.60
2018-09-27T22:27:52.962Z,10.60
2018-09-27T22:30:21.497Z,10.50
2018-09-27T22:32:49.995Z,10.50
2018-09-27T22:35:18.538Z,10.50
2018-09-27T22:37:47.043Z,10.50
2018-09-27T22:40:15.578Z,10.50
2018-09-27T22:42:44.075Z,10.50
2018-09-27T22:45:12.595Z,10.50
2018-09-27T22:47:41.119Z,10.50
2018-09-27T22:50:10.711Z,10.50
2018-09-27T22:52:39.221Z,10.40
2018-09-27T22:55:07.778Z,10.40
2018-09-27T22:57:36.266Z,10.30
2018-09-27T23:00:04.808Z,10.30
2018-09-27T23:02:33.324Z,10.30
2018-09-27T23:05:02.494Z,10.30
2018-09-27T23:07:30.982Z,10.40
2018-09-27T23:09:59.595Z,10.30
2018-09-27T23:12:28.060Z,10.30
2018-09-27T23:14:56.565Z,10.30
2018-09-27T23:17:25.164Z,10.30
2018-09-27T23:19:53.664Z,10.20
2018-09-27T23:22:22.210Z,10.20
2018-09-27T23:24:50.718Z,10.20
2018-09-27T23:27:19.226Z,10.10
2018-09-27T23:29:48.001Z,10.10
2018-09-27T23:32:16.547Z,10.10
2018-09-27T23:34:45.061Z,10.00
2018-09-27T23:37:13.609Z,10.00
2018-09-27T23:39:42.130Z,10.00
2018-09-27T23:42:10.646Z,9.90
2018-09-27T23:44:39.126Z,9.90
2018-09-27T23:47:07.750Z,9.90
2018-09-27T23:49:36.250Z,9.80
2018-09-27T23:52:07.335Z,9.80
2018-09-27T23:54:35.834Z,9.80
2018-09-27T23:57:04.365Z,9.80
2018-09-27T23:59:32.844Z,9.80
